sensor_id;sensor_type;location;lat;lon;timestamp;pressure;altitude;pressure_sealevel;temperature;humidity
78773;BME280;68111;44.728;11.290;2023-07-30T00:01:56;101073.81;;;31.16;40.11
78773;BME280;68111;44.728;11.290;2023-07-30T00:04:23;101069.22;;;31.17;40.46
78773;BME280;68111;44.728;11.290;2023-07-30T00:06:50;101065.75;;;31.15;40.11
78773;BME280;68111;44.728;11.290;2023-07-30T00:09:16;101061.16;;;31.15;40.25
78773;BME280;68111;44.728;11.290;2023-07-30T00:11:43;101062.16;;;31.14;40.08
78773;BME280;68111;44.728;11.290;2023-07-30T00:14:10;101062.25;;;31.13;39.96
78773;BME280;68111;44.728;11.290;2023-07-30T00:16:36;101068.69;;;31.12;39.90
78773;BME280;68111;44.728;11.290;2023-07-30T00:19:03;101070.56;;;31.11;39.90
78773;BME280;68111;44.728;11.290;2023-07-30T00:21:30;101069.69;;;31.11;39.53
78773;BME280;68111;44.728;11.290;2023-07-30T00:23:57;101079.75;;;31.10;39.40
78773;BME280;68111;44.728;11.290;2023-07-30T00:26:25;101078.00;;;31.09;39.77
78773;BME280;68111;44.728;11.290;2023-07-30T00:28:52;101080.72;;;31.09;39.67
78773;BME280;68111;44.728;11.290;2023-07-30T00:31:19;101068.06;;;31.08;39.48
78773;BME280;68111;44.728;11.290;2023-07-30T00:33:46;101063.59;;;31.07;39.67
78773;BME280;68111;44.728;11.290;2023-07-30T00:36:13;101067.31;;;31.06;39.44
78773;BME280;68111;44.728;11.290;2023-07-30T00:38:39;101065.56;;;31.05;39.28
78773;BME280;68111;44.728;11.290;2023-07-30T00:41:06;101067.31;;;31.06;39.21
78773;BME280;68111;44.728;11.290;2023-07-30T00:43:33;101061.84;;;31.06;39.18
78773;BME280;68111;44.728;11.290;2023-07-30T00:45:59;101069.31;;;31.04;39.16
78773;BME280;68111;44.728;11.290;2023-07-30T00:48:26;101069.31;;;31.04;38.98
78773;BME280;68111;44.728;11.290;2023-07-30T00:50:53;101069.31;;;31.04;38.77
78773;BME280;68111;44.728;11.290;2023-07-30T00:53:22;101071.16;;;31.04;38.54
78773;BME280;68111;44.728;11.290;2023-07-30T00:55:49;101079.47;;;31.02;38.37
78773;BME280;68111;44.728;11.290;2023-07-30T00:58:17;101087.78;;;31.01;38.18
78773;BME280;68111;44.728;11.290;2023-07-30T01:00:44;101092.38;;;31.00;38.50
78773;BME280;68111;44.728;11.290;2023-07-30T01:03:11;101103.28;;;31.00;38.31
78773;BME280;68111;44.728;11.290;2023-07-30T01:05:38;101093.38;;;30.99;38.58
78773;BME280;68111;44.728;11.290;2023-07-30T01:08:05;101106.16;;;30.99;38.23
78773;BME280;68111;44.728;11.290;2023-07-30T01:10:32;101101.69;;;30.98;38.60
78773;BME280;68111;44.728;11.290;2023-07-30T01:13:01;101106.16;;;30.99;38.48
78773;BME280;68111;44.728;11.290;2023-07-30T01:15:30;101108.13;;;30.97;38.30
78773;BME280;68111;44.728;11.290;2023-07-30T01:17:57;101113.59;;;30.97;38.73
78773;BME280;68111;44.728;11.290;2023-07-30T01:20:30;101105.50;;;30.95;38.70
78773;BME280;68111;44.728;11.290;2023-07-30T01:23:00;101100.06;;;30.95;38.41
78773;BME280;68111;44.728;11.290;2023-07-30T01:25:29;101097.31;;;30.95;38.60
78773;BME280;68111;44.728;11.290;2023-07-30T01:27:59;101079.19;;;30.94;38.57
78773;BME280;68111;44.728;11.290;2023-07-30T01:30:30;101067.53;;;30.92;38.47
78773;BME280;68111;44.728;11.290;2023-07-30T01:32:59;101078.56;;;30.91;38.66
78773;BME280;68111;44.728;11.290;2023-07-30T01:35:27;101090.34;;;30.91;38.29
78773;BME280;68111;44.728;11.290;2023-07-30T01:37:55;101088.63;;;30.90;38.73
78773;BME280;68111;44.728;11.290;2023-07-30T01:40:22;101085.13;;;30.88;38.73
78773;BME280;68111;44.728;11.290;2023-07-30T01:42:49;101086.00;;;30.88;38.71
78773;BME280;68111;44.728;11.290;2023-07-30T01:45:17;101076.19;;;30.86;39.27
78773;BME280;68111;44.728;11.290;2023-07-30T01:47:44;101073.59;;;30.84;39.36
78773;BME280;68111;44.728;11.290;2023-07-30T01:50:11;101076.44;;;30.83;39.43
78773;BME280;68111;44.728;11.290;2023-07-30T01:52:37;101072.84;;;30.82;39.39
78773;BME280;68111;44.728;11.290;2023-07-30T01:55:04;101085.63;;;30.82;39.60
78773;BME280;68111;44.728;11.290;2023-07-30T01:57:31;101086.59;;;30.81;39.59
78773;BME280;68111;44.728;11.290;2023-07-30T01:59:58;101082.13;;;30.80;39.74
78773;BME280;68111;44.728;11.290;2023-07-30T02:02:25;101072.19;;;30.79;39.72
78773;BME280;68111;44.728;11.290;2023-07-30T02:04:52;101093.16;;;30.78;39.76
78773;BME280;68111;44.728;11.290;2023-07-30T02:07:19;101097.75;;;30.78;40.32
78773;BME280;68111;44.728;11.290;2023-07-30T02:09:45;101097.00;;;30.76;40.30
78773;BME280;68111;44.728;11.290;2023-07-30T02:12:12;101092.53;;;30.75;40.67
78773;BME280;68111;44.728;11.290;2023-07-30T02:14:39;101082.59;;;30.74;40.62
78773;BME280;68111;44.728;11.290;2023-07-30T02:17:06;101069.94;;;30.73;41.41
78773;BME280;68111;44.728;11.290;2023-07-30T02:19:32;101079.38;;;30.69;41.63
78773;BME280;68111;44.728;11.290;2023-07-30T02:21:59;101090.50;;;30.66;41.76
78773;BME280;68111;44.728;11.290;2023-07-30T02:24:26;101091.63;;;30.63;41.50
78773;BME280;68111;44.728;11.290;2023-07-30T02:26:53;101094.47;;;30.62;41.93
78773;BME280;68111;44.728;11.290;2023-07-30T02:29:20;101097.44;;;30.59;42.42
78773;BME280;68111;44.728;11.290;2023-07-30T02:31:47;101094.03;;;30.55;42.63
78773;BME280;68111;44.728;11.290;2023-07-30T02:34:13;101092.53;;;30.51;42.78
78773;BME280;68111;44.728;11.290;2023-07-30T02:36:43;101092.75;;;30.48;42.68
78773;BME280;68111;44.728;11.290;2023-07-30T02:39:09;101079.34;;;30.45;42.92
78773;BME280;68111;44.728;11.290;2023-07-30T02:41:36;101082.94;;;30.45;42.77
78773;BME280;68111;44.728;11.290;2023-07-30T02:44:03;101083.19;;;30.42;42.93
78773;BME280;68111;44.728;11.290;2023-07-30T02:46:30;101081.56;;;30.40;42.91
78773;BME280;68111;44.728;11.290;2023-07-30T02:48:57;101081.16;;;30.33;43.32
78773;BME280;68111;44.728;11.290;2023-07-30T02:51:24;101084.09;;;30.30;43.05
78773;BME280;68111;44.728;11.290;2023-07-30T02:53:58;101077.38;;;30.23;43.37
78773;BME280;68111;44.728;11.290;2023-07-30T02:56:26;101086.53;;;30.22;43.24
78773;BME280;68111;44.728;11.290;2023-07-30T02:58:52;101080.44;;;30.18;43.05
78773;BME280;68111;44.728;11.290;2023-07-30T03:01:19;101082.28;;;30.18;43.18
78773;BME280;68111;44.728;11.290;2023-07-30T03:03:46;101081.53;;;30.16;43.53
78773;BME280;68111;44.728;11.290;2023-07-30T03:06:13;101084.25;;;30.16;43.45
78773;BME280;68111;44.728;11.290;2023-07-30T03:08:40;101095.28;;;30.14;43.39
78773;BME280;68111;44.728;11.290;2023-07-30T03:11:07;101101.84;;;30.12;43.54
78773;BME280;68111;44.728;11.290;2023-07-30T03:13:34;101100.09;;;30.11;43.17
78773;BME280;68111;44.728;11.290;2023-07-30T03:16:01;101100.09;;;30.11;43.22
78773;BME280;68111;44.728;11.290;2023-07-30T03:18:27;101093.66;;;30.12;43.34
78773;BME280;68111;44.728;11.290;2023-07-30T03:20:59;101101.84;;;30.12;42.99
78773;BME280;68111;44.728;11.290;2023-07-30T03:23:27;101105.44;;;30.12;43.29
78773;BME280;68111;44.728;11.290;2023-07-30T03:25:54;101099.88;;;30.14;42.94
78773;BME280;68111;44.728;11.290;2023-07-30T03:28:20;101096.16;;;30.15;42.93
78773;BME280;68111;44.728;11.290;2023-07-30T03:30:47;101098.78;;;30.16;42.79
78773;BME280;68111;44.728;11.290;2023-07-30T03:33:14;101103.34;;;30.16;42.62
78773;BME280;68111;44.728;11.290;2023-07-30T03:35:41;101103.34;;;30.16;42.42
78773;BME280;68111;44.728;11.290;2023-07-30T03:38:07;101105.09;;;30.17;42.24
78773;BME280;68111;44.728;11.290;2023-07-30T03:40:34;101101.63;;;30.15;42.38
78773;BME280;68111;44.728;11.290;2023-07-30T03:43:20;101099.88;;;30.14;41.96
78773;BME280;68111;44.728;11.290;2023-07-30T03:45:46;101103.59;;;30.13;41.95
78773;BME280;68111;44.728;11.290;2023-07-30T03:48:15;101101.84;;;30.12;42.41
78773;BME280;68111;44.728;11.290;2023-07-30T03:50:42;101096.50;;;30.10;42.42
78773;BME280;68111;44.728;11.290;2023-07-30T03:53:08;101107.53;;;30.09;41.80
78773;BME280;68111;44.728;11.290;2023-07-30T03:55:35;101109.50;;;30.07;42.06
78773;BME280;68111;44.728;11.290;2023-07-30T03:58:02;101106.88;;;30.05;42.18
78773;BME280;68111;44.728;11.290;2023-07-30T04:00:29;101111.47;;;30.05;42.43
78773;BME280;68111;44.728;11.290;2023-07-30T04:02:56;101114.41;;;30.02;42.24
78773;BME280;68111;44.728;11.290;2023-07-30T04:05:23;101112.63;;;30.01;42.32
78773;BME280;68111;44.728;11.290;2023-07-30T04:07:49;101117.31;;;29.99;42.20
78773;BME280;68111;44.728;11.290;2023-07-30T04:10:16;101129.22;;;29.98;42.25
78773;BME280;68111;44.728;11.290;2023-07-30T04:12:43;101123.00;;;29.96;42.59
78773;BME280;68111;44.728;11.290;2023-07-30T04:15:10;101130.44;;;29.93;42.32
78773;BME280;68111;44.728;11.290;2023-07-30T04:17:37;101127.00;;;29.90;42.81
78773;BME280;68111;44.728;11.290;2023-07-30T04:20:05;101124.50;;;29.87;43.02
78773;BME280;68111;44.728;11.290;2023-07-30T04:22:31;101126.59;;;29.83;43.20
78773;BME280;68111;44.728;11.290;2023-07-30T04:24:58;101132.25;;;29.80;43.13
78773;BME280;68111;44.728;11.290;2023-07-30T04:27:25;101131.50;;;29.78;43.15
78773;BME280;68111;44.728;11.290;2023-07-30T04:29:56;101133.47;;;29.76;43.53
78773;BME280;68111;44.728;11.290;2023-07-30T04:32:23;101141.75;;;29.75;43.10
78773;BME280;68111;44.728;11.290;2023-07-30T04:34:50;101133.69;;;29.73;43.22
78773;BME280;68111;44.728;11.290;2023-07-30T04:37:17;101155.50;;;29.73;43.46
78773;BME280;68111;44.728;11.290;2023-07-30T04:39:44;101148.50;;;29.69;43.89
78773;BME280;68111;44.728;11.290;2023-07-30T04:42:12;101146.00;;;29.66;43.65
78773;BME280;68111;44.728;11.290;2023-07-30T04:44:41;101129.00;;;29.62;44.04
78773;BME280;68111;44.728;11.290;2023-07-30T04:47:14;101132.72;;;29.61;43.65
78773;BME280;68111;44.728;11.290;2023-07-30T04:49:40;101135.56;;;29.60;43.61
78773;BME280;68111;44.728;11.290;2023-07-30T04:52:07;101138.28;;;29.60;44.04
78773;BME280;68111;44.728;11.290;2023-07-30T04:54:35;101135.56;;;29.60;44.58
78773;BME280;68111;44.728;11.290;2023-07-30T04:57:05;101126.63;;;29.58;44.57
78773;BME280;68111;44.728;11.290;2023-07-30T04:59:32;101121.16;;;29.58;44.18
78773;BME280;68111;44.728;11.290;2023-07-30T05:02:00;101118.44;;;29.58;44.22
78773;BME280;68111;44.728;11.290;2023-07-30T05:04:28;101116.47;;;29.60;44.20
78773;BME280;68111;44.728;11.290;2023-07-30T05:06:54;101113.63;;;29.61;44.56
78773;BME280;68111;44.728;11.290;2023-07-30T05:09:21;101113.53;;;29.63;44.63
78773;BME280;68111;44.728;11.290;2023-07-30T05:11:48;101109.72;;;29.66;44.53
78773;BME280;68111;44.728;11.290;2023-07-30T05:14:15;101114.94;;;29.69;43.99
78773;BME280;68111;44.728;11.290;2023-07-30T05:16:41;101117.56;;;29.70;44.38
78773;BME280;68111;44.728;11.290;2023-07-30T05:19:08;101126.28;;;29.75;44.16
78773;BME280;68111;44.728;11.290;2023-07-30T05:21:35;101133.47;;;29.76;43.92
78773;BME280;68111;44.728;11.290;2023-07-30T05:24:02;101135.00;;;29.80;43.76
78773;BME280;68111;44.728;11.290;2023-07-30T05:26:29;101140.22;;;29.83;43.57
78773;BME280;68111;44.728;11.290;2023-07-30T05:28:56;101132.81;;;29.85;43.83
78773;BME280;68111;44.728;11.290;2023-07-30T05:31:22;101139.00;;;29.87;44.01
78773;BME280;68111;44.728;11.290;2023-07-30T05:33:49;101136.97;;;29.91;43.61
78773;BME280;68111;44.728;11.290;2023-07-30T05:36:16;101145.91;;;29.93;43.18
78773;BME280;68111;44.728;11.290;2023-07-30T05:38:42;101156.69;;;29.94;43.20
78773;BME280;68111;44.728;11.290;2023-07-30T05:41:09;101158.34;;;29.97;43.23
78773;BME280;68111;44.728;11.290;2023-07-30T05:43:36;101162.81;;;29.98;43.27
78773;BME280;68111;44.728;11.290;2023-07-30T05:46:03;101169.03;;;30.00;43.53
78773;BME280;68111;44.728;11.290;2023-07-30T05:48:30;101171.84;;;29.99;43.32
78773;BME280;68111;44.728;11.290;2023-07-30T05:50:57;101167.28;;;29.99;43.28
78773;BME280;68111;44.728;11.290;2023-07-30T05:53:23;101166.41;;;29.99;43.65
78773;BME280;68111;44.728;11.290;2023-07-30T05:55:50;101170.22;;;29.96;43.55
78773;BME280;68111;44.728;11.290;2023-07-30T05:58:17;101168.47;;;29.95;44.31
78773;BME280;68111;44.728;11.290;2023-07-30T06:00:43;101166.84;;;29.92;44.49
78773;BME280;68111;44.728;11.290;2023-07-30T06:03:11;101170.56;;;29.91;44.64
78773;BME280;68111;44.728;11.290;2023-07-30T06:05:41;101169.69;;;29.91;44.71
78773;BME280;68111;44.728;11.290;2023-07-30T06:08:08;101174.03;;;29.93;44.76
78773;BME280;68111;44.728;11.290;2023-07-30T06:10:36;101173.81;;;29.97;45.10
78773;BME280;68111;44.728;11.290;2023-07-30T06:13:04;101170.88;;;30.00;44.57
78773;BME280;68111;44.728;11.290;2023-07-30T06:15:31;101173.41;;;30.03;44.87
78773;BME280;68111;44.728;11.290;2023-07-30T06:17:58;101178.41;;;30.09;44.43
78773;BME280;68111;44.728;11.290;2023-07-30T06:20:25;101178.94;;;30.14;44.42
78773;BME280;68111;44.728;11.290;2023-07-30T06:22:52;101186.69;;;30.20;44.41
78773;BME280;68111;44.728;11.290;2023-07-30T06:25:19;101177.28;;;30.24;44.15
78773;BME280;68111;44.728;11.290;2023-07-30T06:27:45;101191.47;;;30.29;44.21
78773;BME280;68111;44.728;11.290;2023-07-30T06:30:12;101190.16;;;30.35;44.13
78773;BME280;68111;44.728;11.290;2023-07-30T06:32:39;101203.22;;;30.42;43.94
78773;BME280;68111;44.728;11.290;2023-07-30T06:35:06;101203.75;;;30.47;43.91
78773;BME280;68111;44.728;11.290;2023-07-30T06:37:33;101198.81;;;30.52;43.78
78773;BME280;68111;44.728;11.290;2023-07-30T06:40:00;101213.00;;;30.57;43.65
78773;BME280;68111;44.728;11.290;2023-07-30T06:42:27;101208.09;;;30.63;43.73
78773;BME280;68111;44.728;11.290;2023-07-30T06:44:54;101203.06;;;30.69;43.13
78773;BME280;68111;44.728;11.290;2023-07-30T06:47:20;101206.19;;;30.76;43.06
78773;BME280;68111;44.728;11.290;2023-07-30T06:49:47;101198.53;;;30.81;43.15
78773;BME280;68111;44.728;11.290;2023-07-30T06:52:14;101200.03;;;30.85;42.91
78773;BME280;68111;44.728;11.290;2023-07-30T06:54:40;101197.72;;;30.92;42.75
78773;BME280;68111;44.728;11.290;2023-07-30T06:57:07;101204.69;;;30.96;42.91
78773;BME280;68111;44.728;11.290;2023-07-30T06:59:34;101206.94;;;31.02;42.36
78773;BME280;68111;44.728;11.290;2023-07-30T07:02:01;101201.03;;;31.08;42.42
78773;BME280;68111;44.728;11.290;2023-07-30T07:04:27;101207.88;;;31.13;42.41
78773;BME280;68111;44.728;11.290;2023-07-30T07:06:54;101201.22;;;31.17;42.12
78773;BME280;68111;44.728;11.290;2023-07-30T07:09:21;101204.50;;;31.23;42.35
78773;BME280;68111;44.728;11.290;2023-07-30T07:11:47;101200.53;;;31.27;42.37
78773;BME280;68111;44.728;11.290;2023-07-30T07:14:14;101202.78;;;31.33;42.29
78773;BME280;68111;44.728;11.290;2023-07-30T07:16:41;101198.59;;;31.40;41.92
78773;BME280;68111;44.728;11.290;2023-07-30T07:19:07;101201.09;;;31.43;41.85
78773;BME280;68111;44.728;11.290;2023-07-30T07:21:34;101197.88;;;31.49;41.64
78773;BME280;68111;44.728;11.290;2023-07-30T07:24:02;101198.38;;;31.54;41.85
78773;BME280;68111;44.728;11.290;2023-07-30T07:26:28;101184.34;;;31.59;41.44
78773;BME280;68111;44.728;11.290;2023-07-30T07:28:56;101186.72;;;31.63;41.31
78773;BME280;68111;44.728;11.290;2023-07-30T07:31:22;101186.25;;;31.69;41.53
78773;BME280;68111;44.728;11.290;2023-07-30T07:33:49;101183.03;;;31.75;41.49
78773;BME280;68111;44.728;11.290;2023-07-30T07:36:16;101182.69;;;31.80;41.36
78773;BME280;68111;44.728;11.290;2023-07-30T07:38:43;101188.53;;;31.87;40.90
78773;BME280;68111;44.728;11.290;2023-07-30T07:41:14;101178.22;;;31.90;40.84
78773;BME280;68111;44.728;11.290;2023-07-30T07:43:43;101189.53;;;31.97;40.57
78773;BME280;68111;44.728;11.290;2023-07-30T07:46:10;101199.97;;;32.03;40.08
78773;BME280;68111;44.728;11.290;2023-07-30T07:48:43;101185.03;;;32.07;39.99
78773;BME280;68111;44.728;11.290;2023-07-30T07:51:10;101189.75;;;32.16;39.97
78773;BME280;68111;44.728;11.290;2023-07-30T07:53:38;101191.13;;;32.22;39.59
78773;BME280;68111;44.728;11.290;2023-07-30T07:56:05;101187.31;;;32.24;39.21
78773;BME280;68111;44.728;11.290;2023-07-30T07:58:32;101185.31;;;32.26;38.73
78773;BME280;68111;44.728;11.290;2023-07-30T08:00:59;101188.53;;;32.31;38.70
78773;BME280;68111;44.728;11.290;2023-07-30T08:03:26;101187.16;;;32.37;38.62
78773;BME280;68111;44.728;11.290;2023-07-30T08:05:53;101196.75;;;32.42;38.26
78773;BME280;68111;44.728;11.290;2023-07-30T08:08:20;101195.38;;;32.48;38.17
78773;BME280;68111;44.728;11.290;2023-07-30T08:10:47;101193.28;;;32.52;37.88
78773;BME280;68111;44.728;11.290;2023-07-30T08:13:15;101197.50;;;32.56;37.46
78773;BME280;68111;44.728;11.290;2023-07-30T08:15:42;101198.09;;;32.59;37.47
78773;BME280;68111;44.728;11.290;2023-07-30T08:18:09;101189.50;;;32.64;37.37
78773;BME280;68111;44.728;11.290;2023-07-30T08:20:36;101189.88;;;32.70;37.59
78773;BME280;68111;44.728;11.290;2023-07-30T08:23:03;101194.81;;;32.76;37.23
78773;BME280;68111;44.728;11.290;2023-07-30T08:25:29;101189.00;;;32.81;36.77
78773;BME280;68111;44.728;11.290;2023-07-30T08:27:56;101198.69;;;32.85;36.84
78773;BME280;68111;44.728;11.290;2023-07-30T08:30:23;101194.97;;;32.86;36.76
78773;BME280;68111;44.728;11.290;2023-07-30T08:32:49;101198.44;;;32.88;36.78
78773;BME280;68111;44.728;11.290;2023-07-30T08:35:16;101194.44;;;32.92;36.43
78773;BME280;68111;44.728;11.290;2023-07-30T08:37:43;101193.91;;;32.98;36.01
78773;BME280;68111;44.728;11.290;2023-07-30T08:40:10;101181.56;;;33.04;36.05
78773;BME280;68111;44.728;11.290;2023-07-30T08:42:37;101183.91;;;33.08;35.99
78773;BME280;68111;44.728;11.290;2023-07-30T08:45:05;101183.50;;;33.13;36.16
78773;BME280;68111;44.728;11.290;2023-07-30T08:47:34;101190.34;;;33.19;35.89
78773;BME280;68111;44.728;11.290;2023-07-30T08:50:01;101197.28;;;33.23;35.97
78773;BME280;68111;44.728;11.290;2023-07-30T08:52:29;101192.56;;;33.25;35.50
78773;BME280;68111;44.728;11.290;2023-07-30T08:54:56;101194.16;;;33.27;35.14
78773;BME280;68111;44.728;11.290;2023-07-30T08:57:26;101191.28;;;33.29;35.15
78773;BME280;68111;44.728;11.290;2023-07-30T09:00:04;101187.31;;;33.33;34.99
78773;BME280;68111;44.728;11.290;2023-07-30T09:02:43;101184.31;;;33.36;34.89
78773;BME280;68111;44.728;11.290;2023-07-30T09:05:10;101179.28;;;33.41;35.03
78773;BME280;68111;44.728;11.290;2023-07-30T09:07:37;101180.75;;;33.45;34.71
78773;BME280;68111;44.728;11.290;2023-07-30T09:10:04;101179.50;;;33.49;34.87
78773;BME280;68111;44.728;11.290;2023-07-30T09:12:35;101175.59;;;33.52;34.75
78773;BME280;68111;44.728;11.290;2023-07-30T09:15:02;101175.22;;;33.56;34.47
78773;BME280;68111;44.728;11.290;2023-07-30T09:17:31;101170.47;;;33.58;34.46
78773;BME280;68111;44.728;11.290;2023-07-30T09:19:59;101168.44;;;33.60;34.37
78773;BME280;68111;44.728;11.290;2023-07-30T09:22:27;101170.91;;;33.63;34.17
78773;BME280;68111;44.728;11.290;2023-07-30T09:24:55;101167.03;;;33.66;33.85
78773;BME280;68111;44.728;11.290;2023-07-30T09:27:24;101167.63;;;33.69;34.29
78773;BME280;68111;44.728;11.290;2023-07-30T09:29:54;101169.97;;;33.74;34.00
78773;BME280;68111;44.728;11.290;2023-07-30T09:32:26;101170.56;;;33.78;33.90
78773;BME280;68111;44.728;11.290;2023-07-30T09:34:54;101166.63;;;33.82;34.05
78773;BME280;68111;44.728;11.290;2023-07-30T09:37:21;101168.22;;;33.84;34.13
78773;BME280;68111;44.728;11.290;2023-07-30T09:39:48;101160.84;;;33.85;33.85
78773;BME280;68111;44.728;11.290;2023-07-30T09:42:15;101160.56;;;33.88;33.73
78773;BME280;68111;44.728;11.290;2023-07-30T09:44:41;101157.41;;;33.92;33.72
78773;BME280;68111;44.728;11.290;2023-07-30T09:47:09;101155.41;;;33.94;33.72
78773;BME280;68111;44.728;11.290;2023-07-30T09:49:37;101160.63;;;33.97;33.80
78773;BME280;68111;44.728;11.290;2023-07-30T09:52:05;101156.72;;;34.00;33.98
78773;BME280;68111;44.728;11.290;2023-07-30T09:54:33;101157.47;;;34.02;33.50
78773;BME280;68111;44.728;11.290;2023-07-30T09:56:59;101161.06;;;34.02;33.43
78773;BME280;68111;44.728;11.290;2023-07-30T09:59:26;101152.25;;;33.99;33.35
78773;BME280;68111;44.728;11.290;2023-07-30T10:01:53;101156.88;;;33.98;33.52
78773;BME280;68111;44.728;11.290;2023-07-30T10:04:22;101155.13;;;33.97;33.66
78773;BME280;68111;44.728;11.290;2023-07-30T10:07:03;101155.41;;;33.94;33.97
78773;BME280;68111;44.728;11.290;2023-07-30T10:09:34;101151.66;;;33.95;33.60
78773;BME280;68111;44.728;11.290;2023-07-30T10:12:05;101148.03;;;33.95;33.57
78773;BME280;68111;44.728;11.290;2023-07-30T10:14:32;101149.06;;;33.94;33.99
78773;BME280;68111;44.728;11.290;2023-07-30T10:16:59;101149.06;;;33.94;33.96
78773;BME280;68111;44.728;11.290;2023-07-30T10:19:28;101148.78;;;33.97;33.58
78773;BME280;68111;44.728;11.290;2023-07-30T10:22:20;101153.41;;;33.96;33.69
78773;BME280;68111;44.728;11.290;2023-07-30T10:25:01;101143.28;;;33.97;33.78
78773;BME280;68111;44.728;11.290;2023-07-30T10:27:39;101140.69;;;33.95;34.09
78773;BME280;68111;44.728;11.290;2023-07-30T10:30:13;101146.03;;;33.97;33.67
78773;BME280;68111;44.728;11.290;2023-07-30T10:32:42;101152.38;;;33.97;33.28
78773;BME280;68111;44.728;11.290;2023-07-30T10:35:46;101154.25;;;33.97;33.64
78773;BME280;68111;44.728;11.290;2023-07-30T10:38:21;101146.03;;;33.97;33.77
78773;BME280;68111;44.728;11.290;2023-07-30T10:41:05;101147.78;;;33.98;33.91
78773;BME280;68111;44.728;11.290;2023-07-30T10:46:03;101150.25;;;34.01;33.60
78773;BME280;68111;44.728;11.290;2023-07-30T10:48:35;101139.25;;;34.01;33.57
78773;BME280;68111;44.728;11.290;2023-07-30T10:51:03;101137.09;;;34.05;33.79
78773;BME280;68111;44.728;11.290;2023-07-30T10:53:30;101138.72;;;34.07;33.55
78773;BME280;68111;44.728;11.290;2023-07-30T10:55:58;101128.59;;;34.08;33.72
78773;BME280;68111;44.728;11.290;2023-07-30T10:58:29;101125.44;;;34.12;33.68
78773;BME280;68111;44.728;11.290;2023-07-30T11:00:56;101133.53;;;34.14;33.62
78773;BME280;68111;44.728;11.290;2023-07-30T11:03:26;101133.41;;;34.15;33.66
78773;BME280;68111;44.728;11.290;2023-07-30T11:05:54;101130.66;;;34.15;33.26
78773;BME280;68111;44.728;11.290;2023-07-30T11:08:35;101127.03;;;34.15;33.76
78773;BME280;68111;44.728;11.290;2023-07-30T11:11:04;101118.53;;;34.18;33.42
78773;BME280;68111;44.728;11.290;2023-07-30T11:13:38;101113.91;;;34.18;33.20
78773;BME280;68111;44.728;11.290;2023-07-30T11:16:06;101118.25;;;34.21;33.49
78773;BME280;68111;44.728;11.290;2023-07-30T11:18:34;101118.09;;;34.22;33.18
78773;BME280;68111;44.728;11.290;2023-07-30T11:21:06;101115.06;;;34.25;33.01
78773;BME280;68111;44.728;11.290;2023-07-30T11:23:34;101117.69;;;34.27;33.62
78773;BME280;68111;44.728;11.290;2023-07-30T11:26:02;101118.69;;;34.26;33.70
78773;BME280;68111;44.728;11.290;2023-07-30T11:31:02;101103.81;;;34.28;33.52
78773;BME280;68111;44.728;11.290;2023-07-30T11:33:30;101098.03;;;34.31;33.60
78773;BME280;68111;44.728;11.290;2023-07-30T11:35:57;101097.78;;;34.34;33.59
78773;BME280;68111;44.728;11.290;2023-07-30T11:38:25;101095.78;;;34.37;33.11
78773;BME280;68111;44.728;11.290;2023-07-30T11:40:53;101102.84;;;34.39;33.45
78773;BME280;68111;44.728;11.290;2023-07-30T11:43:21;101091.72;;;34.41;33.01
78773;BME280;68111;44.728;11.290;2023-07-30T11:45:48;101098.97;;;34.42;32.81
78773;BME280;68111;44.728;11.290;2023-07-30T11:48:15;101096.94;;;34.44;32.65
78773;BME280;68111;44.728;11.290;2023-07-30T11:50:46;101096.94;;;34.44;32.56
78773;BME280;68111;44.728;11.290;2023-07-30T11:53:14;101096.66;;;34.47;32.77
78773;BME280;68111;44.728;11.290;2023-07-30T11:55:41;101095.63;;;34.48;32.73
78773;BME280;68111;44.728;11.290;2023-07-30T11:58:09;101098.38;;;34.48;32.86
78773;BME280;68111;44.728;11.290;2023-07-30T12:00:37;101105.75;;;34.47;32.32
78773;BME280;68111;44.728;11.290;2023-07-30T12:03:06;101092.91;;;34.48;32.64
78773;BME280;68111;44.728;11.290;2023-07-30T12:05:38;101087.53;;;34.46;32.93
78773;BME280;68111;44.728;11.290;2023-07-30T12:08:13;101086.53;;;34.47;32.81
78773;BME280;68111;44.728;11.290;2023-07-30T12:10:44;101090.16;;;34.48;32.42
78773;BME280;68111;44.728;11.290;2023-07-30T12:13:20;101079.91;;;34.50;32.61
78773;BME280;68111;44.728;11.290;2023-07-30T12:15:53;101078.75;;;34.52;32.21
78773;BME280;68111;44.728;11.290;2023-07-30T12:18:21;101080.34;;;34.55;32.41
78773;BME280;68111;44.728;11.290;2023-07-30T12:20:48;101082.22;;;34.54;32.26
78773;BME280;68111;44.728;11.290;2023-07-30T12:23:17;101072.09;;;34.55;32.51
78773;BME280;68111;44.728;11.290;2023-07-30T12:25:44;101075.84;;;34.54;32.28
78773;BME280;68111;44.728;11.290;2023-07-30T12:28:12;101075.84;;;34.54;32.03
78773;BME280;68111;44.728;11.290;2023-07-30T12:30:39;101078.59;;;34.54;32.25
78773;BME280;68111;44.728;11.290;2023-07-30T12:33:06;101075.84;;;34.54;32.46
78773;BME280;68111;44.728;11.290;2023-07-30T12:35:33;101082.34;;;34.53;32.45
78773;BME280;68111;44.728;11.290;2023-07-30T12:38:00;101075.84;;;34.54;32.42
78773;BME280;68111;44.728;11.290;2023-07-30T12:40:27;101068.78;;;34.51;32.45
78773;BME280;68111;44.728;11.290;2023-07-30T12:42:56;101067.75;;;34.52;32.73
78773;BME280;68111;44.728;11.290;2023-07-30T12:45:23;101066.88;;;34.52;32.36
78773;BME280;68111;44.728;11.290;2023-07-30T12:47:49;101054.16;;;34.51;32.69
78773;BME280;68111;44.728;11.290;2023-07-30T12:50:16;101048.69;;;34.51;32.76